createdAt,value
2017-09-20T00:01:25.497Z,7.67
2017-09-20T00:03:54.670Z,8.80
2017-09-20T00:06:24.459Z,14.30
2017-09-20T00:08:54.776Z,13.60
2017-09-20T00:11:24.689Z,9.67
2017-09-20T00:13:53.813Z,12.80
2017-09-20T00:16:23.163Z,9.10
2017-09-20T00:18:52.317Z,9.20
2017-09-20T00:21:21.454Z,18.87
2017-09-20T00:23:50.608Z,18.23
2017-09-20T00:26:19.700Z,20.97
2017-09-20T00:28:49.686Z,17.20
2017-09-20T00:31:18.818Z,20.13
2017-09-20T00:33:47.923Z,20.63
2017-09-20T00:36:18.305Z,13.30
2017-09-20T00:38:48.641Z,19.40
2017-09-20T00:41:18.581Z,19.23
2017-09-20T00:43:47.754Z,12.80
2017-09-20T00:46:17.144Z,17.83
2017-09-20T00:48:46.302Z,16.53
2017-09-20T00:51:15.541Z,11.90
2017-09-20T00:53:45.059Z,16.80
2017-09-20T00:56:14.999Z,15.23
2017-09-20T00:58:44.193Z,14.90
2017-09-20T01:01:13.723Z,22.97
2017-09-20T01:03:43.525Z,11.10
2017-09-20T01:06:13.345Z,21.33
2017-09-20T01:08:42.701Z,14.73
2017-09-20T01:11:12.592Z,19.17
2017-09-20T01:13:41.740Z,16.87
2017-09-20T01:16:10.906Z,18.77
2017-09-20T01:18:40.007Z,15.57
2017-09-20T01:21:27.137Z,13.53
2017-09-20T01:23:56.250Z,13.40
2017-09-20T01:26:26.162Z,17.70
2017-09-20T01:28:55.819Z,13.00
2017-09-20T01:31:25.034Z,14.23
2017-09-20T01:33:54.298Z,16.93
2017-09-20T01:36:24.388Z,13.00
2017-09-20T01:38:54.322Z,15.03
2017-09-20T01:41:23.520Z,17.70
2017-09-20T01:43:52.741Z,12.90
2017-09-20T01:46:23.041Z,15.80
2017-09-20T01:48:52.982Z,13.70
2017-09-20T01:51:22.445Z,20.20
2017-09-20T01:53:51.545Z,13.07
2017-09-20T01:56:21.749Z,17.63
2017-09-20T01:58:52.050Z,11.17
2017-09-20T02:01:21.159Z,14.17
2017-09-20T02:03:50.310Z,9.10
2017-09-20T02:06:19.786Z,14.00
2017-09-20T02:08:49.661Z,19.10
2017-09-20T02:11:18.822Z,18.73
2017-09-20T02:13:48.168Z,11.03
2017-09-20T02:16:17.347Z,20.17
2017-09-20T02:18:46.466Z,13.97
2017-09-20T02:21:15.813Z,24.37
2017-09-20T02:23:44.996Z,15.57
2017-09-20T02:26:14.890Z,12.63
2017-09-20T02:28:44.358Z,14.77
2017-09-20T02:31:15.069Z,14.13
2017-09-20T02:33:44.250Z,16.30
2017-09-20T02:36:13.724Z,11.93
2017-09-20T02:38:43.614Z,17.63
2017-09-20T02:41:12.777Z,22.70
2017-09-20T02:43:42.926Z,13.73
2017-09-20T02:46:13.102Z,24.63
2017-09-20T02:48:42.334Z,8.63
2017-09-20T02:51:11.541Z,13.23
2017-09-20T02:53:40.685Z,28.10
2017-09-20T02:56:09.798Z,12.23
2017-09-20T02:58:39.254Z,13.10
2017-09-20T03:01:08.418Z,14.20
2017-09-20T03:03:37.519Z,6.13
2017-09-20T03:06:07.066Z,7.37
2017-09-20T03:08:36.175Z,8.43
2017-09-20T03:11:05.346Z,12.60
2017-09-20T03:13:34.662Z,9.20
2017-09-20T03:16:04.036Z,4.13
2017-09-20T03:18:33.213Z,11.63
2017-09-20T03:21:02.515Z,8.97
2017-09-20T03:23:32.424Z,6.37
2017-09-20T03:26:01.574Z,4.67
2017-09-20T03:28:32.194Z,9.73
2017-09-20T03:31:01.367Z,7.83
2017-09-20T03:33:31.473Z,7.30
2017-09-20T03:36:00.787Z,7.40
2017-09-20T03:38:29.926Z,6.73
2017-09-20T03:40:59.097Z,7.93
2017-09-20T03:43:28.629Z,9.33
2017-09-20T03:45:57.827Z,6.53
2017-09-20T03:48:26.923Z,10.70
2017-09-20T03:50:56.332Z,13.33
2017-09-20T03:53:25.514Z,10.20
2017-09-20T03:55:54.649Z,15.10
2017-09-20T03:58:23.960Z,7.47
2017-09-20T04:00:53.093Z,11.33
2017-09-20T04:03:22.183Z,14.40
2017-09-20T04:05:53.845Z,11.07
2017-09-20T04:08:23.690Z,9.03
2017-09-20T04:10:52.787Z,9.40
2017-09-20T04:13:22.138Z,7.97
2017-09-20T04:15:52.001Z,8.37
2017-09-20T04:18:21.192Z,2.47
2017-09-20T04:20:50.683Z,11.37
2017-09-20T04:23:19.770Z,5.50
2017-09-20T04:25:48.957Z,21.37
2017-09-20T04:28:19.973Z,5.60
2017-09-20T04:30:49.180Z,9.67
2017-09-20T04:33:18.362Z,8.87
2017-09-20T04:35:47.827Z,14.03
2017-09-20T04:38:16.981Z,6.77
2017-09-20T04:40:46.882Z,9.60
2017-09-20T04:43:16.152Z,6.00
2017-09-20T04:45:45.252Z,8.57
2017-09-20T04:48:14.369Z,19.77
2017-09-20T04:50:44.742Z,17.07
2017-09-20T04:53:13.898Z,6.87
2017-09-20T04:55:43.117Z,9.60
2017-09-20T04:58:12.648Z,6.37
2017-09-20T05:00:41.817Z,3.10
2017-09-20T05:03:11.816Z,11.03
2017-09-20T05:05:42.038Z,11.63
2017-09-20T05:08:11.962Z,9.43
2017-09-20T05:10:41.131Z,12.50
2017-09-20T05:13:12.468Z,16.10
2017-09-20T05:15:41.658Z,18.43
2017-09-20T05:18:10.834Z,14.43
2017-09-20T05:20:40.317Z,9.30
2017-09-20T05:23:09.459Z,6.33
2017-09-20T05:25:39.361Z,12.97
2017-09-20T05:28:08.631Z,11.80
2017-09-20T05:30:37.946Z,9.03
2017-09-20T05:33:07.214Z,10.10
2017-09-20T05:35:36.830Z,11.57
2017-09-20T05:38:06.864Z,10.40
2017-09-20T05:40:36.103Z,17.70
2017-09-20T05:43:06.373Z,9.73
2017-09-20T05:45:35.594Z,7.27
2017-09-20T05:48:04.759Z,7.57
2017-09-20T05:50:34.170Z,9.60
2017-09-20T05:53:03.981Z,8.00
2017-09-20T05:55:33.345Z,13.57
2017-09-20T05:58:02.717Z,15.27
2017-09-20T06:00:32.770Z,16.00
2017-09-20T06:03:02.013Z,8.43
2017-09-20T06:05:32.638Z,11.43
2017-09-20T06:08:02.664Z,11.60
2017-09-20T06:10:31.990Z,11.13
2017-09-20T06:13:01.676Z,13.30
2017-09-20T06:15:31.163Z,9.60
2017-09-20T06:18:00.605Z,7.70
2017-09-20T06:20:31.868Z,9.47
2017-09-20T06:23:01.085Z,9.07
2017-09-20T06:25:30.654Z,13.47
2017-09-20T06:28:00.129Z,5.57
2017-09-20T06:30:29.842Z,6.20
2017-09-20T06:32:59.855Z,4.10
2017-09-20T06:35:29.390Z,8.07
2017-09-20T06:37:59.996Z,6.37
2017-09-20T06:40:30.178Z,9.10
2017-09-20T06:42:59.553Z,10.47
2017-09-20T06:45:29.549Z,8.30
2017-09-20T06:47:59.104Z,3.57
2017-09-20T06:50:28.468Z,4.07
2017-09-20T06:52:58.382Z,3.00
2017-09-20T06:55:27.879Z,11.77
2017-09-20T06:57:57.195Z,9.23
2017-09-20T07:00:26.386Z,9.20
2017-09-20T07:02:55.685Z,8.37
2017-09-20T07:05:25.565Z,6.20
2017-09-20T07:07:54.694Z,5.03
2017-09-20T07:10:24.889Z,4.37
2017-09-20T07:12:54.069Z,8.73
2017-09-20T07:15:24.722Z,5.73
2017-09-20T07:17:54.206Z,8.70
2017-09-20T07:20:23.391Z,7.20
2017-09-20T07:22:52.624Z,8.43
2017-09-20T07:25:22.025Z,6.10
2017-09-20T07:27:51.201Z,14.03
2017-09-20T07:30:20.939Z,7.07
2017-09-20T07:32:50.338Z,5.33
2017-09-20T07:35:21.415Z,5.63
2017-09-20T07:37:50.838Z,6.53
2017-09-20T07:40:21.143Z,5.67
2017-09-20T07:42:50.394Z,8.03
2017-09-20T07:45:24.691Z,13.13
2017-09-20T07:47:54.030Z,16.40
2017-09-20T07:50:23.346Z,5.37
2017-09-20T07:52:53.820Z,8.87
2017-09-20T07:55:24.390Z,5.20
2017-09-20T07:57:54.498Z,6.00
2017-09-20T08:00:23.668Z,10.63
2017-09-20T08:03:04.379Z,12.03
2017-09-20T08:05:36.971Z,4.67
2017-09-20T08:08:07.573Z,5.93
2017-09-20T08:10:37.025Z,4.23
2017-09-20T08:13:06.548Z,4.03
2017-09-20T08:15:36.184Z,10.23
2017-09-20T08:18:05.902Z,6.60
2017-09-20T08:20:36.335Z,6.57
2017-09-20T08:23:06.567Z,4.60
2017-09-20T08:25:36.971Z,6.40
2017-09-20T08:28:06.713Z,4.87
2017-09-20T08:30:36.325Z,6.50
2017-09-20T08:33:06.704Z,5.30
2017-09-20T08:35:37.159Z,4.67
2017-09-20T08:38:07.538Z,2.40
2017-09-20T08:40:36.884Z,7.60
2017-09-20T08:43:06.740Z,6.00
2017-09-20T08:45:36.875Z,8.27
2017-09-20T08:48:06.369Z,7.50
2017-09-20T08:50:36.283Z,1.33
2017-09-20T08:53:05.746Z,7.00
2017-09-20T08:55:35.829Z,1.93
2017-09-20T08:58:06.256Z,14.07
2017-09-20T09:00:36.623Z,2.63
2017-09-20T09:03:06.780Z,6.47
2017-09-20T09:05:36.661Z,8.40
2017-09-20T09:08:06.193Z,5.77
2017-09-20T09:10:35.833Z,1.30
2017-09-20T09:13:06.357Z,7.03
2017-09-20T09:15:35.944Z,4.20
2017-09-20T09:18:05.639Z,4.10
2017-09-20T09:20:36.210Z,6.70
2017-09-20T09:23:05.654Z,4.10
2017-09-20T09:25:35.058Z,7.03
2017-09-20T09:28:05.053Z,9.67
2017-09-20T09:30:35.361Z,6.13
2017-09-20T09:33:05.798Z,5.63
2017-09-20T09:35:35.410Z,9.90
2017-09-20T09:38:05.651Z,5.43
2017-09-20T09:40:35.037Z,4.87
2017-09-20T09:43:04.557Z,6.17
2017-09-20T09:45:33.858Z,4.73
2017-09-20T09:48:03.624Z,7.90
2017-09-20T09:50:33.048Z,16.07
2017-09-20T09:53:02.518Z,14.13
2017-09-20T09:55:32.149Z,10.00
2017-09-20T09:58:01.558Z,10.80
2017-09-20T10:00:31.104Z,3.43
2017-09-20T10:03:00.891Z,3.80
2017-09-20T10:05:31.295Z,11.33
2017-09-20T10:08:01.734Z,4.83
2017-09-20T10:10:31.183Z,2.37
2017-09-20T10:13:01.381Z,4.70
2017-09-20T10:15:31.213Z,6.93
2017-09-20T10:18:00.583Z,2.93
2017-09-20T10:20:30.429Z,7.00
2017-09-20T10:23:00.407Z,7.17
2017-09-20T10:25:31.275Z,3.50
2017-09-20T10:28:03.075Z,6.60
2017-09-20T10:30:33.014Z,7.93
2017-09-20T10:33:02.441Z,3.57
2017-09-20T10:35:32.261Z,4.80
2017-09-20T10:38:02.498Z,9.70
2017-09-20T10:40:32.910Z,6.30
2017-09-20T10:43:04.759Z,3.50
2017-09-20T10:45:35.617Z,4.27
2017-09-20T10:48:05.750Z,3.33
2017-09-20T10:50:35.468Z,2.30
2017-09-20T10:53:05.156Z,3.17
2017-09-20T10:55:35.914Z,9.53
2017-09-20T10:58:05.800Z,7.23
2017-09-20T11:00:35.630Z,5.83
2017-09-20T11:03:05.935Z,2.50
2017-09-20T11:05:35.235Z,8.97
2017-09-20T11:08:04.788Z,11.47
2017-09-20T11:10:34.469Z,7.37
2017-09-20T11:13:03.975Z,6.70
2017-09-20T11:15:33.488Z,2.53
2017-09-20T11:18:04.283Z,2.53
2017-09-20T11:20:33.817Z,6.67
2017-09-20T11:23:03.414Z,2.10
2017-09-20T11:25:33.332Z,3.30
2017-09-20T11:28:03.771Z,0.70
2017-09-20T11:30:34.543Z,0.90
2017-09-20T11:33:06.095Z,0.60
2017-09-20T11:35:36.246Z,3.43
2017-09-20T11:38:05.772Z,1.13
2017-09-20T11:40:35.357Z,3.33
2017-09-20T11:43:05.960Z,1.63
2017-09-20T11:45:35.615Z,3.53
2017-09-20T11:48:05.884Z,6.17
2017-09-20T11:50:35.591Z,1.53
2017-09-20T11:53:05.744Z,3.37
2017-09-20T11:55:35.255Z,8.67
2017-09-20T11:58:04.925Z,7.23
2017-09-20T12:00:34.586Z,2.53
2017-09-20T12:03:04.910Z,6.43
2017-09-20T12:05:35.967Z,3.00
2017-09-20T12:08:05.422Z,3.13
2017-09-20T12:10:37.371Z,3.03
2017-09-20T12:13:06.949Z,3.50
2017-09-20T12:15:36.190Z,5.47
2017-09-20T12:18:06.382Z,2.63
2017-09-20T12:20:36.790Z,5.90
2017-09-20T12:23:06.524Z,4.63
2017-09-20T12:25:37.348Z,3.90
2017-09-20T12:28:08.734Z,1.67
2017-09-20T12:30:39.004Z,5.23
2017-09-20T12:33:08.492Z,2.70
2017-09-20T12:35:38.712Z,0.77
2017-09-20T12:38:08.443Z,3.57
2017-09-20T12:40:38.030Z,3.50
2017-09-20T12:43:07.409Z,5.20
2017-09-20T12:45:39.040Z,3.17
2017-09-20T12:48:09.348Z,2.43
2017-09-20T12:50:38.560Z,5.27
2017-09-20T12:53:08.521Z,4.50
2017-09-20T12:55:38.902Z,4.80
2017-09-20T12:58:09.606Z,1.87
2017-09-20T13:00:39.073Z,6.43
2017-09-20T13:03:08.404Z,3.53
2017-09-20T13:05:38.399Z,5.10
2017-09-20T13:08:08.470Z,3.13
2017-09-20T13:10:38.353Z,5.07
2017-09-20T13:13:07.800Z,2.83
2017-09-20T13:15:42.892Z,2.80
2017-09-20T13:18:12.910Z,6.13
2017-09-20T13:20:42.612Z,3.70
2017-09-20T13:23:11.706Z,2.53
2017-09-20T13:25:41.779Z,6.10
2017-09-20T13:28:10.882Z,5.50
2017-09-20T13:30:40.786Z,2.70
2017-09-20T13:33:10.294Z,4.10
2017-09-20T13:35:40.204Z,2.70
2017-09-20T13:38:09.316Z,3.50
2017-09-20T13:40:43.329Z,2.93
2017-09-20T13:43:13.306Z,4.43
2017-09-20T13:45:42.482Z,2.80
2017-09-20T13:48:12.956Z,8.90
2017-09-20T13:50:42.407Z,5.97
2017-09-20T13:53:11.512Z,18.03
2017-09-20T13:55:41.396Z,7.53
2017-09-20T13:58:11.275Z,5.03
2017-09-20T14:00:41.087Z,4.70
2017-09-20T14:03:10.490Z,3.47
2017-09-20T14:05:40.420Z,9.03
2017-09-20T14:08:09.560Z,7.33
2017-09-20T14:10:40.736Z,2.70
2017-09-20T14:13:09.832Z,4.37
2017-09-20T14:15:43.330Z,5.90
2017-09-20T14:18:12.561Z,1.80
2017-09-20T14:20:41.702Z,1.53
2017-09-20T14:23:11.142Z,6.90
2017-09-20T14:25:40.695Z,3.20
2017-09-20T14:28:09.851Z,3.20
2017-09-20T14:30:39.049Z,7.63
2017-09-20T14:33:10.806Z,11.00
2017-09-20T14:35:40.113Z,3.67
2017-09-20T14:38:10.059Z,5.00
2017-09-20T14:40:40.275Z,3.23
2017-09-20T14:43:09.559Z,6.90
2017-09-20T14:45:38.883Z,2.67
2017-09-20T14:48:08.071Z,4.67
2017-09-20T14:50:38.391Z,9.50
2017-09-20T14:53:09.648Z,8.17
2017-09-20T14:55:38.952Z,5.80
2017-09-20T14:58:08.092Z,3.53
2017-09-20T15:00:37.448Z,8.03
2017-09-20T15:03:07.249Z,3.37
2017-09-20T15:05:36.644Z,2.03
2017-09-20T15:08:06.133Z,4.17
2017-09-20T15:10:35.663Z,5.80
2017-09-20T15:13:06.086Z,6.47
2017-09-20T15:15:35.713Z,9.67
2017-09-20T15:18:05.379Z,4.33
2017-09-20T15:20:34.689Z,9.10
2017-09-20T15:23:03.924Z,6.63
2017-09-20T15:25:33.402Z,2.53
2017-09-20T15:28:03.448Z,8.53
2017-09-20T15:30:33.858Z,6.57
2017-09-20T15:33:04.151Z,7.33
2017-09-20T15:35:33.371Z,12.90
2017-09-20T15:38:02.674Z,7.00
2017-09-20T15:40:32.271Z,9.13
2017-09-20T15:43:01.664Z,6.90
2017-09-20T15:45:31.396Z,4.00
2017-09-20T15:48:02.659Z,12.90
2017-09-20T15:50:32.734Z,10.13
2017-09-20T15:53:02.095Z,12.03
2017-09-20T15:55:31.874Z,16.40
2017-09-20T15:58:01.301Z,5.20
2017-09-20T16:00:30.806Z,3.30
2017-09-20T16:03:01.483Z,8.00
2017-09-20T16:05:31.038Z,10.87
2017-09-20T16:08:00.713Z,6.00
2017-09-20T16:10:30.909Z,5.60
2017-09-20T16:13:00.427Z,3.67
2017-09-20T16:15:30.380Z,8.60
2017-09-20T16:18:00.215Z,6.27
2017-09-20T16:20:29.596Z,14.00
2017-09-20T16:22:59.020Z,4.93
2017-09-20T16:25:29.447Z,8.50
2017-09-20T16:27:58.644Z,5.73
2017-09-20T16:30:28.385Z,11.73
2017-09-20T16:32:57.854Z,15.83
2017-09-20T16:35:27.855Z,14.40
2017-09-20T16:37:57.545Z,14.37
2017-09-20T16:40:29.008Z,8.23
2017-09-20T16:43:02.589Z,14.33
2017-09-20T16:45:32.510Z,18.00
2017-09-20T16:48:02.138Z,11.23
2017-09-20T16:50:31.484Z,15.50
2017-09-20T16:53:01.020Z,9.53
2017-09-20T16:55:30.802Z,15.30
2017-09-20T16:58:00.128Z,20.00
2017-09-20T17:00:30.553Z,14.20
2017-09-20T17:02:59.958Z,16.00
2017-09-20T17:05:29.652Z,13.63
2017-09-20T17:07:59.602Z,17.33
2017-09-20T17:10:28.975Z,21.60
2017-09-20T17:12:58.207Z,17.60
2017-09-20T17:15:27.617Z,16.83
2017-09-20T17:17:56.913Z,15.50
2017-09-20T17:20:26.884Z,15.03
2017-09-20T17:22:56.286Z,15.20
2017-09-20T17:25:26.493Z,12.00
2017-09-20T17:27:57.967Z,18.00
2017-09-20T17:30:27.312Z,12.80
2017-09-20T17:32:57.492Z,10.50
2017-09-20T17:35:27.872Z,19.10
2017-09-20T17:37:57.160Z,28.50
2017-09-20T17:40:26.394Z,19.73
2017-09-20T17:42:56.684Z,21.70
2017-09-20T17:45:29.234Z,14.87
2017-09-20T17:47:59.083Z,17.50
2017-09-20T17:50:28.303Z,7.50
2017-09-20T17:52:57.520Z,19.80
2017-09-20T17:55:27.008Z,15.50
2017-09-20T17:57:56.165Z,16.07
2017-09-20T18:00:25.302Z,8.10
2017-09-20T18:02:54.860Z,21.30
2017-09-20T18:05:24.183Z,12.70
2017-09-20T18:07:53.306Z,14.23
2017-09-20T18:10:22.681Z,15.47
2017-09-20T18:12:51.957Z,10.40
2017-09-20T18:15:21.154Z,12.80
2017-09-20T18:17:50.746Z,22.83
2017-09-20T18:20:20.882Z,18.07
2017-09-20T18:22:50.936Z,8.30
2017-09-20T18:25:20.354Z,14.60
2017-09-20T18:27:51.634Z,13.00
2017-09-20T18:30:20.994Z,11.20
2017-09-20T18:32:50.935Z,10.73
2017-09-20T18:35:22.253Z,8.67
2017-09-20T18:37:51.618Z,15.50
2017-09-20T18:40:21.518Z,12.50
2017-09-20T18:42:51.432Z,14.97
2017-09-20T18:45:21.000Z,10.33
2017-09-20T18:47:54.871Z,10.03
2017-09-20T18:50:24.230Z,7.33
2017-09-20T18:52:53.585Z,13.67
2017-09-20T18:55:23.828Z,11.03
2017-09-20T18:57:53.376Z,15.17
2017-09-20T19:00:22.493Z,8.27
2017-09-20T19:02:51.612Z,17.87
2017-09-20T19:05:22.902Z,12.90
2017-09-20T19:07:52.007Z,11.60
2017-09-20T19:10:21.988Z,13.73
2017-09-20T19:12:52.308Z,10.30
2017-09-20T19:15:23.784Z,14.93
2017-09-20T19:17:54.087Z,9.73
2017-09-20T19:20:23.225Z,14.13
2017-09-20T19:22:52.439Z,11.33
2017-09-20T19:25:21.786Z,13.83
2017-09-20T19:27:51.034Z,15.17
2017-09-20T19:30:20.688Z,6.70
2017-09-20T19:32:50.353Z,8.53
2017-09-20T19:35:19.537Z,11.40
2017-09-20T19:37:48.669Z,13.53
2017-09-20T19:40:19.425Z,6.50
2017-09-20T19:42:48.700Z,20.77
2017-09-20T19:45:19.056Z,8.90
2017-09-20T19:47:48.445Z,11.03
2017-09-20T19:50:17.588Z,8.53
2017-09-20T19:52:46.716Z,8.37
2017-09-20T19:55:16.123Z,6.67
2017-09-20T19:57:46.038Z,8.10
2017-09-20T20:00:15.226Z,7.70
2017-09-20T20:02:45.156Z,14.43
2017-09-20T20:05:15.954Z,17.07
2017-09-20T20:07:45.839Z,12.70
2017-09-20T20:10:14.991Z,14.53
2017-09-20T20:12:44.396Z,11.83
2017-09-20T20:15:13.696Z,25.87
2017-09-20T20:17:42.943Z,14.53
2017-09-20T20:20:13.812Z,20.03
2017-09-20T20:22:43.050Z,16.63
2017-09-20T20:25:12.357Z,10.53
2017-09-20T20:27:41.929Z,20.97
2017-09-20T20:30:12.380Z,13.70
2017-09-20T20:32:41.587Z,14.17
2017-09-20T20:35:10.954Z,14.03
2017-09-20T20:37:40.102Z,22.70
2017-09-20T20:40:10.367Z,17.87
2017-09-20T20:42:39.735Z,12.33
2017-09-20T20:45:09.927Z,10.87
2017-09-20T20:47:39.156Z,22.73
2017-09-20T20:50:08.347Z,21.63
2017-09-20T20:52:37.677Z,18.67
2017-09-20T20:55:06.918Z,18.87
2017-09-20T20:57:36.650Z,17.13
2017-09-20T21:00:06.771Z,35.70
2017-09-20T21:02:36.796Z,19.80
2017-09-20T21:05:06.043Z,29.53
2017-09-20T21:07:35.505Z,16.50
2017-09-20T21:10:07.509Z,20.70
2017-09-20T21:12:37.480Z,23.10
2017-09-20T21:15:07.775Z,21.00
2017-09-20T21:17:39.803Z,20.33
2017-09-20T21:20:09.242Z,19.47
2017-09-20T21:22:38.719Z,16.50
2017-09-20T21:25:14.240Z,18.77
2017-09-20T21:27:44.215Z,28.90
2017-09-20T21:30:13.375Z,23.63
2017-09-20T21:32:42.609Z,18.80
2017-09-20T21:35:12.589Z,18.63
2017-09-20T21:37:43.466Z,28.73
2017-09-20T21:40:12.637Z,20.50
2017-09-20T21:42:46.709Z,28.10
2017-09-20T21:45:17.690Z,19.77
2017-09-20T21:47:46.809Z,30.00
2017-09-20T21:50:16.085Z,26.73
2017-09-20T21:52:45.586Z,24.37
2017-09-20T21:55:14.734Z,23.03
2017-09-20T21:57:44.037Z,23.03
2017-09-20T22:00:14.304Z,25.10
2017-09-20T22:02:43.429Z,31.20
2017-09-20T22:05:13.401Z,33.00
2017-09-20T22:07:42.650Z,25.40
2017-09-20T22:10:11.759Z,29.77
2017-09-20T22:12:40.976Z,40.03
2017-09-20T22:15:29.187Z,30.10
2017-09-20T22:18:16.275Z,30.40
2017-09-20T22:21:03.623Z,30.77
2017-09-20T22:23:50.456Z,31.57
2017-09-20T22:26:37.531Z,33.33
2017-09-20T22:29:07.652Z,29.40
2017-09-20T22:31:37.504Z,32.37
2017-09-20T22:34:07.989Z,41.37
2017-09-20T22:36:37.202Z,39.37
2017-09-20T22:39:06.723Z,38.83
2017-09-20T22:41:36.288Z,35.33
2017-09-20T22:44:06.624Z,36.60
2017-09-20T22:46:35.852Z,36.47
2017-09-20T22:49:05.303Z,42.87
2017-09-20T22:51:34.774Z,46.30
2017-09-20T22:54:04.106Z,45.20
2017-09-20T22:56:34.688Z,36.53
2017-09-20T22:59:04.419Z,37.77
2017-09-20T23:01:33.914Z,39.17
2017-09-20T23:04:03.536Z,37.27
2017-09-20T23:06:33.751Z,47.13
2017-09-20T23:09:03.912Z,33.83
2017-09-20T23:11:33.516Z,43.20
2017-09-20T23:14:02.882Z,47.70
2017-09-20T23:16:32.080Z,38.80
2017-09-20T23:19:01.541Z,39.20
2017-09-20T23:21:30.869Z,47.57
2017-09-20T23:24:00.929Z,52.40
2017-09-20T23:26:31.108Z,42.03
2017-09-20T23:29:00.375Z,46.57
2017-09-20T23:31:30.429Z,48.40
2017-09-20T23:34:00.358Z,56.77
2017-09-20T23:36:30.757Z,53.67
2017-09-20T23:38:59.961Z,40.13
2017-09-20T23:41:30.503Z,56.17
2017-09-20T23:44:00.046Z,55.23
2017-09-20T23:46:29.956Z,48.00
2017-09-20T23:48:59.326Z,53.03
2017-09-20T23:51:28.814Z,51.93
2017-09-20T23:53:58.992Z,43.63
2017-09-20T23:56:29.350Z,45.03
2017-09-20T23:58:59.277Z,43.07
